sensor_id;sensor_type;location;lat;lon;timestamp;P1;durP1;ratioP1;P2;durP2;ratioP2
19358;SDS011;9815;52.334;20.890;2023-05-17T00:00:39;18.50;;;13.23;;
19358;SDS011;9815;52.334;20.890;2023-05-17T00:03:07;21.93;;;13.90;;
19358;SDS011;9815;52.334;20.890;2023-05-17T00:05:35;15.80;;;12.30;;
19358;SDS011;9815;52.334;20.890;2023-05-17T00:08:03;18.43;;;12.50;;
19358;SDS011;9815;52.334;20.890;2023-05-17T00:10:33;19.70;;;12.17;;
19358;SDS011;9815;52.334;20.890;2023-05-17T00:13:01;20.27;;;12.27;;
19358;SDS011;9815;52.334;20.890;2023-05-17T00:15:29;16.30;;;12.57;;
19358;SDS011;9815;52.334;20.890;2023-05-17T00:17:57;22.13;;;13.13;;
19358;SDS011;9815;52.334;20.890;2023-05-17T00:20:26;18.47;;;12.33;;
19358;SDS011;9815;52.334;20.890;2023-05-17T00:22:54;17.47;;;12.83;;
19358;SDS011;9815;52.334;20.890;2023-05-17T00:25:22;19.77;;;12.63;;
19358;SDS011;9815;52.334;20.890;2023-05-17T00:27:52;19.40;;;13.50;;
19358;SDS011;9815;52.334;20.890;2023-05-17T00:30:20;18.67;;;13.03;;
19358;SDS011;9815;52.334;20.890;2023-05-17T00:32:48;20.80;;;14.17;;
19358;SDS011;9815;52.334;20.890;2023-05-17T00:35:17;23.20;;;15.43;;
19358;SDS011;9815;52.334;20.890;2023-05-17T00:37:45;23.60;;;14.80;;
19358;SDS011;9815;52.334;20.890;2023-05-17T00:40:13;22.50;;;15.03;;
19358;SDS011;9815;52.334;20.890;2023-05-17T00:42:42;23.03;;;15.33;;
19358;SDS011;9815;52.334;20.890;2023-05-17T00:45:12;24.87;;;14.77;;
19358;SDS011;9815;52.334;20.890;2023-05-17T00:47:40;23.10;;;15.50;;
19358;SDS011;9815;52.334;20.890;2023-05-17T00:50:08;24.70;;;15.23;;
19358;SDS011;9815;52.334;20.890;2023-05-17T00:52:38;22.47;;;15.23;;
19358;SDS011;9815;52.334;20.890;2023-05-17T00:55:06;24.13;;;15.57;;
19358;SDS011;9815;52.334;20.890;2023-05-17T00:57:35;23.47;;;15.77;;
19358;SDS011;9815;52.334;20.890;2023-05-17T01:00:03;26.10;;;15.53;;
19358;SDS011;9815;52.334;20.890;2023-05-17T01:02:33;23.00;;;15.40;;
19358;SDS011;9815;52.334;20.890;2023-05-17T01:05:01;26.27;;;15.53;;
19358;SDS011;9815;52.334;20.890;2023-05-17T01:07:30;24.37;;;16.13;;
19358;SDS011;9815;52.334;20.890;2023-05-17T01:09:58;23.27;;;15.57;;
19358;SDS011;9815;52.334;20.890;2023-05-17T01:12:31;25.33;;;16.40;;
19358;SDS011;9815;52.334;20.890;2023-05-17T01:15:08;26.10;;;16.53;;
19358;SDS011;9815;52.334;20.890;2023-05-17T01:17:45;23.40;;;16.03;;
19358;SDS011;9815;52.334;20.890;2023-05-17T01:20:21;25.13;;;16.20;;
19358;SDS011;9815;52.334;20.890;2023-05-17T01:22:58;27.60;;;16.97;;
19358;SDS011;9815;52.334;20.890;2023-05-17T01:25:49;25.17;;;16.57;;
19358;SDS011;9815;52.334;20.890;2023-05-17T01:28:24;24.50;;;16.10;;
19358;SDS011;9815;52.334;20.890;2023-05-17T01:30:53;26.50;;;17.47;;
19358;SDS011;9815;52.334;20.890;2023-05-17T01:33:23;26.50;;;17.13;;
19358;SDS011;9815;52.334;20.890;2023-05-17T01:35:52;25.30;;;16.60;;
19358;SDS011;9815;52.334;20.890;2023-05-17T01:38:20;26.60;;;17.07;;
19358;SDS011;9815;52.334;20.890;2023-05-17T01:40:51;27.93;;;16.60;;
19358;SDS011;9815;52.334;20.890;2023-05-17T01:43:30;25.23;;;15.80;;
19358;SDS011;9815;52.334;20.890;2023-05-17T01:46:05;27.57;;;16.80;;
19358;SDS011;9815;52.334;20.890;2023-05-17T01:48:39;26.47;;;17.27;;
19358;SDS011;9815;52.334;20.890;2023-05-17T01:51:14;27.80;;;17.87;;
19358;SDS011;9815;52.334;20.890;2023-05-17T01:53:47;29.60;;;17.73;;
19358;SDS011;9815;52.334;20.890;2023-05-17T01:56:25;28.10;;;18.30;;
19358;SDS011;9815;52.334;20.890;2023-05-17T01:58:56;29.87;;;18.93;;
19358;SDS011;9815;52.334;20.890;2023-05-17T02:01:26;29.43;;;19.80;;
19358;SDS011;9815;52.334;20.890;2023-05-17T02:03:55;31.40;;;19.47;;
19358;SDS011;9815;52.334;20.890;2023-05-17T02:06:23;29.93;;;19.47;;
19358;SDS011;9815;52.334;20.890;2023-05-17T02:08:51;37.27;;;21.77;;
19358;SDS011;9815;52.334;20.890;2023-05-17T02:11:20;35.80;;;21.47;;
19358;SDS011;9815;52.334;20.890;2023-05-17T02:13:51;37.47;;;21.00;;
19358;SDS011;9815;52.334;20.890;2023-05-17T02:16:20;37.87;;;22.77;;
19358;SDS011;9815;52.334;20.890;2023-05-17T02:18:48;38.00;;;23.93;;
19358;SDS011;9815;52.334;20.890;2023-05-17T02:21:17;40.10;;;24.07;;
19358;SDS011;9815;52.334;20.890;2023-05-17T02:23:45;41.30;;;24.90;;
19358;SDS011;9815;52.334;20.890;2023-05-17T02:26:13;45.13;;;26.17;;
19358;SDS011;9815;52.334;20.890;2023-05-17T02:28:41;43.70;;;26.33;;
19358;SDS011;9815;52.334;20.890;2023-05-17T02:31:09;45.03;;;27.30;;
19358;SDS011;9815;52.334;20.890;2023-05-17T02:33:38;45.53;;;26.37;;
19358;SDS011;9815;52.334;20.890;2023-05-17T02:36:07;49.07;;;29.03;;
19358;SDS011;9815;52.334;20.890;2023-05-17T02:38:37;50.83;;;29.60;;
19358;SDS011;9815;52.334;20.890;2023-05-17T02:41:05;51.93;;;28.53;;
19358;SDS011;9815;52.334;20.890;2023-05-17T02:43:33;51.90;;;29.90;;
19358;SDS011;9815;52.334;20.890;2023-05-17T02:46:02;50.80;;;29.43;;
19358;SDS011;9815;52.334;20.890;2023-05-17T02:48:31;49.40;;;29.20;;
19358;SDS011;9815;52.334;20.890;2023-05-17T02:51:00;50.70;;;29.53;;
19358;SDS011;9815;52.334;20.890;2023-05-17T02:53:28;57.27;;;29.37;;
19358;SDS011;9815;52.334;20.890;2023-05-17T02:55:57;55.67;;;29.83;;
19358;SDS011;9815;52.334;20.890;2023-05-17T02:58:25;55.47;;;29.70;;
19358;SDS011;9815;52.334;20.890;2023-05-17T03:00:53;56.73;;;30.37;;
19358;SDS011;9815;52.334;20.890;2023-05-17T03:03:21;52.03;;;29.43;;
19358;SDS011;9815;52.334;20.890;2023-05-17T03:05:49;50.40;;;29.50;;
19358;SDS011;9815;52.334;20.890;2023-05-17T03:08:19;50.43;;;29.07;;
19358;SDS011;9815;52.334;20.890;2023-05-17T03:10:47;53.03;;;29.73;;
19358;SDS011;9815;52.334;20.890;2023-05-17T03:13:16;50.40;;;29.17;;
19358;SDS011;9815;52.334;20.890;2023-05-17T03:15:44;51.20;;;30.00;;
19358;SDS011;9815;52.334;20.890;2023-05-17T03:18:12;53.23;;;28.53;;
19358;SDS011;9815;52.334;20.890;2023-05-17T03:20:42;52.70;;;29.13;;
19358;SDS011;9815;52.334;20.890;2023-05-17T03:23:10;52.00;;;28.97;;
19358;SDS011;9815;52.334;20.890;2023-05-17T03:25:49;56.50;;;30.20;;
19358;SDS011;9815;52.334;20.890;2023-05-17T03:28:18;53.83;;;28.33;;
19358;SDS011;9815;52.334;20.890;2023-05-17T03:30:46;52.93;;;29.63;;
19358;SDS011;9815;52.334;20.890;2023-05-17T03:33:15;51.97;;;28.73;;
19358;SDS011;9815;52.334;20.890;2023-05-17T03:35:43;52.77;;;29.60;;
19358;SDS011;9815;52.334;20.890;2023-05-17T03:38:12;52.67;;;29.63;;
19358;SDS011;9815;52.334;20.890;2023-05-17T03:40:40;51.67;;;29.53;;
19358;SDS011;9815;52.334;20.890;2023-05-17T03:43:09;50.13;;;28.80;;
19358;SDS011;9815;52.334;20.890;2023-05-17T03:45:38;53.40;;;29.07;;
19358;SDS011;9815;52.334;20.890;2023-05-17T03:48:06;47.87;;;27.57;;
19358;SDS011;9815;52.334;20.890;2023-05-17T03:50:34;49.20;;;27.53;;
19358;SDS011;9815;52.334;20.890;2023-05-17T03:53:02;54.13;;;29.40;;
19358;SDS011;9815;52.334;20.890;2023-05-17T03:55:31;48.27;;;28.10;;
19358;SDS011;9815;52.334;20.890;2023-05-17T03:57:59;56.33;;;29.57;;
19358;SDS011;9815;52.334;20.890;2023-05-17T04:00:29;50.37;;;27.50;;
19358;SDS011;9815;52.334;20.890;2023-05-17T04:03:03;48.97;;;27.17;;
19358;SDS011;9815;52.334;20.890;2023-05-17T04:05:31;46.57;;;25.80;;
19358;SDS011;9815;52.334;20.890;2023-05-17T04:07:59;47.23;;;26.83;;
19358;SDS011;9815;52.334;20.890;2023-05-17T04:10:27;43.07;;;25.77;;
19358;SDS011;9815;52.334;20.890;2023-05-17T04:12:57;43.57;;;24.37;;
19358;SDS011;9815;52.334;20.890;2023-05-17T04:15:25;39.53;;;22.87;;
19358;SDS011;9815;52.334;20.890;2023-05-17T04:17:55;38.10;;;23.07;;
19358;SDS011;9815;52.334;20.890;2023-05-17T04:20:23;36.63;;;21.47;;
19358;SDS011;9815;52.334;20.890;2023-05-17T04:22:51;39.73;;;22.40;;
19358;SDS011;9815;52.334;20.890;2023-05-17T04:25:19;38.27;;;21.93;;
19358;SDS011;9815;52.334;20.890;2023-05-17T04:27:50;39.63;;;21.90;;
19358;SDS011;9815;52.334;20.890;2023-05-17T04:30:18;37.30;;;21.57;;
19358;SDS011;9815;52.334;20.890;2023-05-17T04:32:49;33.57;;;19.60;;
19358;SDS011;9815;52.334;20.890;2023-05-17T04:35:19;40.53;;;25.73;;
19358;SDS011;9815;52.334;20.890;2023-05-17T04:37:50;31.10;;;19.90;;
19358;SDS011;9815;52.334;20.890;2023-05-17T04:40:20;29.30;;;18.57;;
19358;SDS011;9815;52.334;20.890;2023-05-17T04:42:49;24.23;;;16.87;;
19358;SDS011;9815;52.334;20.890;2023-05-17T04:45:18;27.93;;;18.07;;
19358;SDS011;9815;52.334;20.890;2023-05-17T04:47:47;33.33;;;21.00;;
19358;SDS011;9815;52.334;20.890;2023-05-17T04:50:19;29.73;;;19.63;;
19358;SDS011;9815;52.334;20.890;2023-05-17T04:52:48;29.13;;;18.23;;
19358;SDS011;9815;52.334;20.890;2023-05-17T04:55:17;24.33;;;15.83;;
19358;SDS011;9815;52.334;20.890;2023-05-17T04:57:45;21.47;;;14.10;;
19358;SDS011;9815;52.334;20.890;2023-05-17T05:00:15;22.37;;;13.90;;
19358;SDS011;9815;52.334;20.890;2023-05-17T05:02:49;18.63;;;13.03;;
19358;SDS011;9815;52.334;20.890;2023-05-17T05:05:17;20.97;;;13.53;;
19358;SDS011;9815;52.334;20.890;2023-05-17T05:07:47;31.97;;;17.60;;
19358;SDS011;9815;52.334;20.890;2023-05-17T05:10:16;23.93;;;15.53;;
19358;SDS011;9815;52.334;20.890;2023-05-17T05:12:44;25.20;;;16.50;;
19358;SDS011;9815;52.334;20.890;2023-05-17T05:15:12;20.47;;;13.43;;
19358;SDS011;9815;52.334;20.890;2023-05-17T05:17:47;18.60;;;12.57;;
19358;SDS011;9815;52.334;20.890;2023-05-17T05:20:17;17.47;;;11.97;;
19358;SDS011;9815;52.334;20.890;2023-05-17T05:22:46;17.73;;;11.50;;
19358;SDS011;9815;52.334;20.890;2023-05-17T05:25:17;18.07;;;11.60;;
19358;SDS011;9815;52.334;20.890;2023-05-17T05:27:45;17.47;;;12.47;;
19358;SDS011;9815;52.334;20.890;2023-05-17T05:30:14;19.83;;;12.73;;
19358;SDS011;9815;52.334;20.890;2023-05-17T05:32:49;17.50;;;12.27;;
19358;SDS011;9815;52.334;20.890;2023-05-17T05:35:19;19.87;;;12.80;;
19358;SDS011;9815;52.334;20.890;2023-05-17T05:37:53;22.53;;;13.73;;
19358;SDS011;9815;52.334;20.890;2023-05-17T05:40:21;23.10;;;14.17;;
19358;SDS011;9815;52.334;20.890;2023-05-17T05:42:50;19.83;;;13.70;;
19358;SDS011;9815;52.334;20.890;2023-05-17T05:45:19;21.30;;;13.53;;
19358;SDS011;9815;52.334;20.890;2023-05-17T05:47:50;20.53;;;13.47;;
19358;SDS011;9815;52.334;20.890;2023-05-17T05:50:18;20.83;;;13.87;;
19358;SDS011;9815;52.334;20.890;2023-05-17T05:52:49;20.47;;;13.83;;
19358;SDS011;9815;52.334;20.890;2023-05-17T05:55:30;20.57;;;13.93;;
19358;SDS011;9815;52.334;20.890;2023-05-17T05:57:58;23.47;;;14.60;;
19358;SDS011;9815;52.334;20.890;2023-05-17T06:00:32;22.83;;;14.33;;
19358;SDS011;9815;52.334;20.890;2023-05-17T06:03:03;22.30;;;14.37;;
19358;SDS011;9815;52.334;20.890;2023-05-17T06:05:31;21.57;;;14.20;;
19358;SDS011;9815;52.334;20.890;2023-05-17T06:07:59;24.20;;;14.63;;
19358;SDS011;9815;52.334;20.890;2023-05-17T06:10:28;25.53;;;15.20;;
19358;SDS011;9815;52.334;20.890;2023-05-17T06:12:57;23.93;;;14.17;;
19358;SDS011;9815;52.334;20.890;2023-05-17T06:15:26;23.33;;;15.07;;
19358;SDS011;9815;52.334;20.890;2023-05-17T06:17:54;24.90;;;15.17;;
19358;SDS011;9815;52.334;20.890;2023-05-17T06:20:22;22.33;;;14.10;;
19358;SDS011;9815;52.334;20.890;2023-05-17T06:22:50;21.73;;;13.67;;
19358;SDS011;9815;52.334;20.890;2023-05-17T06:25:18;23.53;;;14.73;;
19358;SDS011;9815;52.334;20.890;2023-05-17T06:27:46;23.10;;;14.03;;
19358;SDS011;9815;52.334;20.890;2023-05-17T06:30:16;26.00;;;15.03;;
19358;SDS011;9815;52.334;20.890;2023-05-17T06:32:44;22.00;;;14.37;;
19358;SDS011;9815;52.334;20.890;2023-05-17T06:35:12;22.73;;;14.20;;
19358;SDS011;9815;52.334;20.890;2023-05-17T06:37:40;22.83;;;14.27;;
19358;SDS011;9815;52.334;20.890;2023-05-17T06:40:09;25.03;;;14.47;;
19358;SDS011;9815;52.334;20.890;2023-05-17T06:42:42;23.30;;;14.53;;
19358;SDS011;9815;52.334;20.890;2023-05-17T06:45:11;19.37;;;13.07;;
19358;SDS011;9815;52.334;20.890;2023-05-17T06:47:40;20.30;;;13.73;;
19358;SDS011;9815;52.334;20.890;2023-05-17T06:50:09;20.33;;;13.03;;
19358;SDS011;9815;52.334;20.890;2023-05-17T06:52:37;21.30;;;12.77;;
19358;SDS011;9815;52.334;20.890;2023-05-17T06:55:06;20.43;;;13.80;;
19358;SDS011;9815;52.334;20.890;2023-05-17T06:57:34;21.10;;;13.20;;
19358;SDS011;9815;52.334;20.890;2023-05-17T07:00:03;21.60;;;13.93;;
19358;SDS011;9815;52.334;20.890;2023-05-17T07:02:36;21.20;;;13.90;;
19358;SDS011;9815;52.334;20.890;2023-05-17T07:05:06;21.33;;;13.03;;
19358;SDS011;9815;52.334;20.890;2023-05-17T07:07:34;20.10;;;13.50;;
19358;SDS011;9815;52.334;20.890;2023-05-17T07:10:03;23.83;;;13.80;;
19358;SDS011;9815;52.334;20.890;2023-05-17T07:12:32;21.27;;;14.07;;
19358;SDS011;9815;52.334;20.890;2023-05-17T07:15:00;21.73;;;12.63;;
19358;SDS011;9815;52.334;20.890;2023-05-17T07:17:28;20.40;;;13.27;;
19358;SDS011;9815;52.334;20.890;2023-05-17T07:19:56;20.00;;;13.00;;
19358;SDS011;9815;52.334;20.890;2023-05-17T07:22:26;19.93;;;13.33;;
19358;SDS011;9815;52.334;20.890;2023-05-17T07:24:54;20.43;;;13.03;;
19358;SDS011;9815;52.334;20.890;2023-05-17T07:27:23;21.70;;;13.40;;
19358;SDS011;9815;52.334;20.890;2023-05-17T07:29:51;19.47;;;13.03;;
19358;SDS011;9815;52.334;20.890;2023-05-17T07:32:19;23.33;;;12.77;;
19358;SDS011;9815;52.334;20.890;2023-05-17T07:34:47;19.20;;;12.40;;
19358;SDS011;9815;52.334;20.890;2023-05-17T07:37:15;20.60;;;13.50;;
19358;SDS011;9815;52.334;20.890;2023-05-17T07:39:47;20.57;;;12.73;;
19358;SDS011;9815;52.334;20.890;2023-05-17T07:42:15;22.27;;;13.70;;
19358;SDS011;9815;52.334;20.890;2023-05-17T07:44:43;22.27;;;13.60;;
19358;SDS011;9815;52.334;20.890;2023-05-17T07:47:14;20.13;;;12.80;;
19358;SDS011;9815;52.334;20.890;2023-05-17T07:49:42;21.57;;;12.27;;
19358;SDS011;9815;52.334;20.890;2023-05-17T07:52:10;18.50;;;12.53;;
19358;SDS011;9815;52.334;20.890;2023-05-17T07:54:38;18.30;;;12.87;;
19358;SDS011;9815;52.334;20.890;2023-05-17T07:57:08;18.47;;;12.17;;
19358;SDS011;9815;52.334;20.890;2023-05-17T07:59:36;23.77;;;12.00;;
19358;SDS011;9815;52.334;20.890;2023-05-17T08:02:04;18.13;;;11.37;;
19358;SDS011;9815;52.334;20.890;2023-05-17T08:04:32;17.17;;;11.67;;
19358;SDS011;9815;52.334;20.890;2023-05-17T08:07:01;16.77;;;11.30;;
19358;SDS011;9815;52.334;20.890;2023-05-17T08:09:29;18.87;;;11.57;;
19358;SDS011;9815;52.334;20.890;2023-05-17T08:11:57;16.57;;;10.70;;
19358;SDS011;9815;52.334;20.890;2023-05-17T08:14:28;15.97;;;10.53;;
19358;SDS011;9815;52.334;20.890;2023-05-17T08:16:56;16.43;;;10.33;;
19358;SDS011;9815;52.334;20.890;2023-05-17T08:19:25;15.90;;;10.93;;
19358;SDS011;9815;52.334;20.890;2023-05-17T08:21:54;20.03;;;11.57;;
19358;SDS011;9815;52.334;20.890;2023-05-17T08:24:32;15.60;;;11.13;;
19358;SDS011;9815;52.334;20.890;2023-05-17T08:27:00;17.30;;;11.60;;
19358;SDS011;9815;52.334;20.890;2023-05-17T08:29:30;17.20;;;11.97;;
19358;SDS011;9815;52.334;20.890;2023-05-17T08:31:58;17.30;;;11.73;;
19358;SDS011;9815;52.334;20.890;2023-05-17T08:34:26;18.30;;;11.97;;
19358;SDS011;9815;52.334;20.890;2023-05-17T08:36:54;18.03;;;11.60;;
19358;SDS011;9815;52.334;20.890;2023-05-17T08:39:23;19.60;;;12.30;;
19358;SDS011;9815;52.334;20.890;2023-05-17T08:41:51;19.97;;;12.03;;
19358;SDS011;9815;52.334;20.890;2023-05-17T08:44:25;20.00;;;12.67;;
19358;SDS011;9815;52.334;20.890;2023-05-17T08:46:56;19.53;;;12.60;;
19358;SDS011;9815;52.334;20.890;2023-05-17T08:49:26;18.30;;;12.53;;
19358;SDS011;9815;52.334;20.890;2023-05-17T08:51:59;24.33;;;12.83;;
19358;SDS011;9815;52.334;20.890;2023-05-17T08:54:28;22.43;;;12.83;;
19358;SDS011;9815;52.334;20.890;2023-05-17T08:56:57;19.23;;;11.57;;
19358;SDS011;9815;52.334;20.890;2023-05-17T08:59:27;19.93;;;13.03;;
19358;SDS011;9815;52.334;20.890;2023-05-17T09:02:00;19.87;;;12.87;;
19358;SDS011;9815;52.334;20.890;2023-05-17T09:04:30;20.07;;;12.83;;
19358;SDS011;9815;52.334;20.890;2023-05-17T09:06:58;21.53;;;13.00;;
19358;SDS011;9815;52.334;20.890;2023-05-17T09:09:26;21.27;;;13.40;;
19358;SDS011;9815;52.334;20.890;2023-05-17T09:11:55;19.90;;;12.63;;
19358;SDS011;9815;52.334;20.890;2023-05-17T09:14:23;23.00;;;13.40;;
19358;SDS011;9815;52.334;20.890;2023-05-17T09:16:55;23.40;;;14.03;;
19358;SDS011;9815;52.334;20.890;2023-05-17T09:19:25;23.40;;;13.83;;
19358;SDS011;9815;52.334;20.890;2023-05-17T09:21:53;20.77;;;12.80;;
19358;SDS011;9815;52.334;20.890;2023-05-17T09:24:26;20.60;;;12.80;;
19358;SDS011;9815;52.334;20.890;2023-05-17T09:27:00;25.30;;;14.10;;
19358;SDS011;9815;52.334;20.890;2023-05-17T09:29:30;23.30;;;13.63;;
19358;SDS011;9815;52.334;20.890;2023-05-17T09:32:10;22.63;;;14.50;;
19358;SDS011;9815;52.334;20.890;2023-05-17T09:34:43;23.80;;;13.70;;
19358;SDS011;9815;52.334;20.890;2023-05-17T09:37:14;22.90;;;13.37;;
19358;SDS011;9815;52.334;20.890;2023-05-17T09:39:44;25.13;;;13.70;;
19358;SDS011;9815;52.334;20.890;2023-05-17T09:42:13;27.57;;;14.43;;
19358;SDS011;9815;52.334;20.890;2023-05-17T09:44:46;22.30;;;13.97;;
19358;SDS011;9815;52.334;20.890;2023-05-17T09:47:26;21.50;;;13.73;;
19358;SDS011;9815;52.334;20.890;2023-05-17T09:49:57;23.03;;;14.07;;
19358;SDS011;9815;52.334;20.890;2023-05-17T09:52:29;23.27;;;13.53;;
19358;SDS011;9815;52.334;20.890;2023-05-17T09:54:58;26.37;;;14.80;;
19358;SDS011;9815;52.334;20.890;2023-05-17T09:57:27;28.37;;;14.13;;
19358;SDS011;9815;52.334;20.890;2023-05-17T10:00:04;24.20;;;12.97;;
19358;SDS011;9815;52.334;20.890;2023-05-17T10:02:38;22.63;;;13.17;;
19358;SDS011;9815;52.334;20.890;2023-05-17T10:05:09;23.03;;;13.33;;
19358;SDS011;9815;52.334;20.890;2023-05-17T10:07:38;28.97;;;13.97;;
19358;SDS011;9815;52.334;20.890;2023-05-17T10:10:07;26.23;;;13.20;;
19358;SDS011;9815;52.334;20.890;2023-05-17T10:12:36;23.30;;;14.20;;
19358;SDS011;9815;52.334;20.890;2023-05-17T10:15:11;30.97;;;13.70;;
19358;SDS011;9815;52.334;20.890;2023-05-17T10:17:44;27.80;;;13.90;;
19358;SDS011;9815;52.334;20.890;2023-05-17T10:20:14;27.90;;;14.40;;
19358;SDS011;9815;52.334;20.890;2023-05-17T10:22:51;21.40;;;12.63;;
19358;SDS011;9815;52.334;20.890;2023-05-17T10:25:26;29.93;;;13.43;;
19358;SDS011;9815;52.334;20.890;2023-05-17T10:27:56;23.90;;;12.47;;
19358;SDS011;9815;52.334;20.890;2023-05-17T10:30:27;21.60;;;11.23;;
19358;SDS011;9815;52.334;20.890;2023-05-17T10:32:56;18.47;;;11.07;;
19358;SDS011;9815;52.334;20.890;2023-05-17T10:35:27;22.07;;;10.20;;
19358;SDS011;9815;52.334;20.890;2023-05-17T10:37:57;19.50;;;10.27;;
19358;SDS011;9815;52.334;20.890;2023-05-17T10:40:26;20.03;;;10.40;;
19358;SDS011;9815;52.334;20.890;2023-05-17T10:42:57;17.00;;;9.17;;
19358;SDS011;9815;52.334;20.890;2023-05-17T10:45:26;18.27;;;9.40;;
19358;SDS011;9815;52.334;20.890;2023-05-17T10:47:55;19.63;;;9.73;;
19358;SDS011;9815;52.334;20.890;2023-05-17T10:50:27;10.83;;;8.00;;
19358;SDS011;9815;52.334;20.890;2023-05-17T10:52:57;18.23;;;9.00;;
19358;SDS011;9815;52.334;20.890;2023-05-17T10:55:34;20.50;;;8.67;;
19358;SDS011;9815;52.334;20.890;2023-05-17T10:58:15;19.37;;;8.30;;
19358;SDS011;9815;52.334;20.890;2023-05-17T11:00:45;16.53;;;7.27;;
19358;SDS011;9815;52.334;20.890;2023-05-17T11:03:19;17.03;;;8.27;;
19358;SDS011;9815;52.334;20.890;2023-05-17T11:09:07;17.10;;;7.27;;
19358;SDS011;9815;52.334;20.890;2023-05-17T11:14:50;16.03;;;7.33;;
19358;SDS011;9815;52.334;20.890;2023-05-17T11:17:51;11.90;;;7.03;;
19358;SDS011;9815;52.334;20.890;2023-05-17T11:21:06;10.40;;;7.03;;
19358;SDS011;9815;52.334;20.890;2023-05-17T11:23:36;13.50;;;6.37;;
19358;SDS011;9815;52.334;20.890;2023-05-17T11:26:11;16.30;;;7.00;;
19358;SDS011;9815;52.334;20.890;2023-05-17T11:28:43;16.90;;;7.33;;
19358;SDS011;9815;52.334;20.890;2023-05-17T11:31:11;13.47;;;6.93;;
19358;SDS011;9815;52.334;20.890;2023-05-17T11:33:51;14.97;;;6.70;;
19358;SDS011;9815;52.334;20.890;2023-05-17T11:36:21;16.53;;;7.00;;
19358;SDS011;9815;52.334;20.890;2023-05-17T11:39:07;14.77;;;6.77;;
19358;SDS011;9815;52.334;20.890;2023-05-17T11:41:46;16.13;;;6.70;;
19358;SDS011;9815;52.334;20.890;2023-05-17T11:44:15;15.20;;;6.70;;
19358;SDS011;9815;52.334;20.890;2023-05-17T11:46:50;18.87;;;7.13;;
19358;SDS011;9815;52.334;20.890;2023-05-17T11:49:26;14.53;;;6.63;;
19358;SDS011;9815;52.334;20.890;2023-05-17T11:52:02;13.27;;;7.80;;
19358;SDS011;9815;52.334;20.890;2023-05-17T11:54:33;16.00;;;7.20;;
19358;SDS011;9815;52.334;20.890;2023-05-17T11:57:01;16.67;;;7.60;;
19358;SDS011;9815;52.334;20.890;2023-05-17T11:59:35;12.60;;;7.40;;
19358;SDS011;9815;52.334;20.890;2023-05-17T12:02:05;22.30;;;8.60;;
19358;SDS011;9815;52.334;20.890;2023-05-17T12:04:34;21.13;;;8.07;;
19358;SDS011;9815;52.334;20.890;2023-05-17T12:07:04;19.87;;;8.80;;
19358;SDS011;9815;52.334;20.890;2023-05-17T12:09:38;16.17;;;8.73;;
19358;SDS011;9815;52.334;20.890;2023-05-17T12:12:06;18.67;;;9.27;;
19358;SDS011;9815;52.334;20.890;2023-05-17T12:14:35;17.67;;;9.37;;
19358;SDS011;9815;52.334;20.890;2023-05-17T12:17:04;18.23;;;9.70;;
19358;SDS011;9815;52.334;20.890;2023-05-17T12:19:37;19.60;;;9.10;;
19358;SDS011;9815;52.334;20.890;2023-05-17T12:22:07;19.57;;;9.33;;
19358;SDS011;9815;52.334;20.890;2023-05-17T12:24:39;17.73;;;9.40;;
19358;SDS011;9815;52.334;20.890;2023-05-17T12:27:09;17.33;;;10.10;;
19358;SDS011;9815;52.334;20.890;2023-05-17T12:29:37;24.13;;;10.17;;
19358;SDS011;9815;52.334;20.890;2023-05-17T12:32:05;20.93;;;10.63;;
19358;SDS011;9815;52.334;20.890;2023-05-17T12:34:36;21.77;;;9.60;;
19358;SDS011;9815;52.334;20.890;2023-05-17T12:37:06;17.87;;;10.13;;
19358;SDS011;9815;52.334;20.890;2023-05-17T12:39:36;21.20;;;10.33;;
19358;SDS011;9815;52.334;20.890;2023-05-17T12:42:07;19.40;;;10.20;;
19358;SDS011;9815;52.334;20.890;2023-05-17T12:44:36;19.90;;;10.40;;
19358;SDS011;9815;52.334;20.890;2023-05-17T12:47:05;21.27;;;10.73;;
19358;SDS011;9815;52.334;20.890;2023-05-17T12:49:36;17.97;;;10.53;;
19358;SDS011;9815;52.334;20.890;2023-05-17T12:52:05;19.57;;;10.93;;
19358;SDS011;9815;52.334;20.890;2023-05-17T12:54:34;20.30;;;11.43;;
19358;SDS011;9815;52.334;20.890;2023-05-17T12:57:09;20.97;;;11.43;;
19358;SDS011;9815;52.334;20.890;2023-05-17T12:59:47;22.00;;;10.73;;
19358;SDS011;9815;52.334;20.890;2023-05-17T13:02:15;20.20;;;11.03;;
19358;SDS011;9815;52.334;20.890;2023-05-17T13:04:45;22.20;;;11.30;;
19358;SDS011;9815;52.334;20.890;2023-05-17T13:07:19;27.67;;;11.73;;
19358;SDS011;9815;52.334;20.890;2023-05-17T13:09:48;23.60;;;11.37;;
19358;SDS011;9815;52.334;20.890;2023-05-17T13:12:19;23.57;;;11.57;;
19358;SDS011;9815;52.334;20.890;2023-05-17T13:14:49;19.60;;;12.20;;
19358;SDS011;9815;52.334;20.890;2023-05-17T13:17:23;23.70;;;12.10;;
19358;SDS011;9815;52.334;20.890;2023-05-17T13:19:52;23.37;;;12.23;;
19358;SDS011;9815;52.334;20.890;2023-05-17T13:22:23;26.27;;;12.37;;
19358;SDS011;9815;52.334;20.890;2023-05-17T13:24:52;23.20;;;12.50;;
19358;SDS011;9815;52.334;20.890;2023-05-17T13:27:21;26.10;;;11.50;;
19358;SDS011;9815;52.334;20.890;2023-05-17T13:29:50;22.50;;;11.90;;
19358;SDS011;9815;52.334;20.890;2023-05-17T13:32:19;21.07;;;10.33;;
19358;SDS011;9815;52.334;20.890;2023-05-17T13:34:48;21.47;;;10.77;;
19358;SDS011;9815;52.334;20.890;2023-05-17T13:37:16;24.13;;;11.23;;
19358;SDS011;9815;52.334;20.890;2023-05-17T13:39:44;23.80;;;11.17;;
19358;SDS011;9815;52.334;20.890;2023-05-17T13:42:13;18.17;;;10.90;;
19358;SDS011;9815;52.334;20.890;2023-05-17T13:44:42;19.43;;;11.40;;
19358;SDS011;9815;52.334;20.890;2023-05-17T13:47:10;20.97;;;11.33;;
19358;SDS011;9815;52.334;20.890;2023-05-17T13:49:38;20.70;;;10.77;;
19358;SDS011;9815;52.334;20.890;2023-05-17T13:52:06;22.00;;;10.13;;
19358;SDS011;9815;52.334;20.890;2023-05-17T13:54:35;22.60;;;11.07;;
19358;SDS011;9815;52.334;20.890;2023-05-17T13:57:04;17.10;;;9.90;;
19358;SDS011;9815;52.334;20.890;2023-05-17T13:59:34;18.30;;;10.40;;
19358;SDS011;9815;52.334;20.890;2023-05-17T14:02:03;20.27;;;10.13;;
19358;SDS011;9815;52.334;20.890;2023-05-17T14:04:32;21.53;;;10.70;;
19358;SDS011;9815;52.334;20.890;2023-05-17T14:07:00;15.60;;;9.70;;
19358;SDS011;9815;52.334;20.890;2023-05-17T14:09:28;16.93;;;10.07;;
19358;SDS011;9815;52.334;20.890;2023-05-17T14:11:59;20.70;;;9.90;;
19358;SDS011;9815;52.334;20.890;2023-05-17T14:14:28;23.10;;;10.63;;
19358;SDS011;9815;52.334;20.890;2023-05-17T14:16:57;20.97;;;9.93;;
19358;SDS011;9815;52.334;20.890;2023-05-17T14:19:28;19.83;;;9.90;;
19358;SDS011;9815;52.334;20.890;2023-05-17T14:21:58;18.83;;;9.40;;
19358;SDS011;9815;52.334;20.890;2023-05-17T14:24:26;20.30;;;8.80;;
19358;SDS011;9815;52.334;20.890;2023-05-17T14:26:54;17.30;;;8.40;;
19358;SDS011;9815;52.334;20.890;2023-05-17T14:29:23;13.07;;;8.57;;
19358;SDS011;9815;52.334;20.890;2023-05-17T14:31:51;16.70;;;7.93;;
19358;SDS011;9815;52.334;20.890;2023-05-17T14:34:19;12.80;;;7.87;;
19358;SDS011;9815;52.334;20.890;2023-05-17T14:36:49;17.63;;;7.60;;
19358;SDS011;9815;52.334;20.890;2023-05-17T14:39:17;14.23;;;7.27;;
19358;SDS011;9815;52.334;20.890;2023-05-17T14:41:45;16.07;;;7.50;;
19358;SDS011;9815;52.334;20.890;2023-05-17T14:44:13;19.60;;;7.80;;
19358;SDS011;9815;52.334;20.890;2023-05-17T14:46:42;12.77;;;6.70;;